sensor_id;sensor_type;location;lat;lon;timestamp;P1;durP1;ratioP1;P2;durP2;ratioP2
5754;SDS011;2902;42.130;24.732;2023-05-07T00:01:13;5.87;;;5.47;;
5754;SDS011;2902;42.130;24.732;2023-05-07T00:03:39;7.07;;;6.23;;
5754;SDS011;2902;42.130;24.732;2023-05-07T00:06:06;7.70;;;5.67;;
5754;SDS011;2902;42.130;24.732;2023-05-07T00:08:33;5.60;;;5.10;;
5754;SDS011;2902;42.130;24.732;2023-05-07T00:11:00;9.60;;;5.93;;
5754;SDS011;2902;42.130;24.732;2023-05-07T00:13:28;6.33;;;5.63;;
5754;SDS011;2902;42.130;24.732;2023-05-07T00:16:00;5.70;;;5.23;;
5754;SDS011;2902;42.130;24.732;2023-05-07T00:18:27;5.60;;;5.20;;
5754;SDS011;2902;42.130;24.732;2023-05-07T00:20:53;5.80;;;4.90;;
5754;SDS011;2902;42.130;24.732;2023-05-07T00:23:21;7.23;;;5.20;;
5754;SDS011;2902;42.130;24.732;2023-05-07T00:25:48;5.73;;;5.17;;
5754;SDS011;2902;42.130;24.732;2023-05-07T00:28:15;5.40;;;4.90;;
5754;SDS011;2902;42.130;24.732;2023-05-07T00:30:43;6.20;;;5.27;;
5754;SDS011;2902;42.130;24.732;2023-05-07T00:33:09;6.10;;;5.40;;
5754;SDS011;2902;42.130;24.732;2023-05-07T00:35:36;5.17;;;4.77;;
5754;SDS011;2902;42.130;24.732;2023-05-07T00:38:03;5.67;;;4.33;;
5754;SDS011;2902;42.130;24.732;2023-05-07T00:40:29;5.33;;;5.03;;
5754;SDS011;2902;42.130;24.732;2023-05-07T00:42:56;5.43;;;4.70;;
5754;SDS011;2902;42.130;24.732;2023-05-07T00:45:25;4.67;;;4.27;;
5754;SDS011;2902;42.130;24.732;2023-05-07T00:47:55;4.60;;;4.30;;
5754;SDS011;2902;42.130;24.732;2023-05-07T00:50:23;5.13;;;4.73;;
5754;SDS011;2902;42.130;24.732;2023-05-07T00:52:50;5.77;;;4.07;;
5754;SDS011;2902;42.130;24.732;2023-05-07T00:55:17;4.93;;;4.57;;
5754;SDS011;2902;42.130;24.732;2023-05-07T00:57:44;5.20;;;4.50;;
5754;SDS011;2902;42.130;24.732;2023-05-07T01:00:11;6.00;;;4.67;;
5754;SDS011;2902;42.130;24.732;2023-05-07T01:02:39;6.83;;;4.70;;
5754;SDS011;2902;42.130;24.732;2023-05-07T01:05:08;6.77;;;4.77;;
5754;SDS011;2902;42.130;24.732;2023-05-07T01:07:37;4.70;;;4.30;;
5754;SDS011;2902;42.130;24.732;2023-05-07T01:10:06;4.40;;;4.10;;
5754;SDS011;2902;42.130;24.732;2023-05-07T01:12:34;5.70;;;5.07;;
5754;SDS011;2902;42.130;24.732;2023-05-07T01:15:03;4.87;;;4.50;;
5754;SDS011;2902;42.130;24.732;2023-05-07T01:17:32;6.00;;;4.93;;
5754;SDS011;2902;42.130;24.732;2023-05-07T01:20:00;6.27;;;4.83;;
5754;SDS011;2902;42.130;24.732;2023-05-07T01:22:31;9.40;;;4.50;;
5754;SDS011;2902;42.130;24.732;2023-05-07T01:24:59;4.90;;;4.37;;
5754;SDS011;2902;42.130;24.732;2023-05-07T01:27:26;5.10;;;4.80;;
5754;SDS011;2902;42.130;24.732;2023-05-07T01:29:53;5.00;;;4.70;;
5754;SDS011;2902;42.130;24.732;2023-05-07T01:32:21;5.47;;;4.97;;
5754;SDS011;2902;42.130;24.732;2023-05-07T01:34:53;4.90;;;4.50;;
5754;SDS011;2902;42.130;24.732;2023-05-07T01:37:21;5.17;;;4.83;;
5754;SDS011;2902;42.130;24.732;2023-05-07T01:39:50;5.70;;;5.30;;
5754;SDS011;2902;42.130;24.732;2023-05-07T01:42:17;5.60;;;5.10;;
5754;SDS011;2902;42.130;24.732;2023-05-07T01:44:44;5.77;;;5.37;;
5754;SDS011;2902;42.130;24.732;2023-05-07T01:47:11;6.30;;;5.20;;
5754;SDS011;2902;42.130;24.732;2023-05-07T01:49:38;6.17;;;5.57;;
5754;SDS011;2902;42.130;24.732;2023-05-07T01:52:06;5.87;;;5.10;;
5754;SDS011;2902;42.130;24.732;2023-05-07T01:54:33;6.40;;;5.33;;
5754;SDS011;2902;42.130;24.732;2023-05-07T01:57:01;5.77;;;5.27;;
5754;SDS011;2902;42.130;24.732;2023-05-07T01:59:28;5.60;;;5.20;;
5754;SDS011;2902;42.130;24.732;2023-05-07T02:01:54;7.13;;;6.20;;
5754;SDS011;2902;42.130;24.732;2023-05-07T02:04:21;5.50;;;5.10;;
5754;SDS011;2902;42.130;24.732;2023-05-07T02:06:48;6.33;;;5.73;;
5754;SDS011;2902;42.130;24.732;2023-05-07T02:09:15;7.23;;;6.63;;
5754;SDS011;2902;42.130;24.732;2023-05-07T02:11:41;6.03;;;5.67;;
5754;SDS011;2902;42.130;24.732;2023-05-07T02:14:09;6.70;;;5.80;;
5754;SDS011;2902;42.130;24.732;2023-05-07T02:16:36;6.37;;;5.83;;
5754;SDS011;2902;42.130;24.732;2023-05-07T02:19:03;5.77;;;5.40;;
5754;SDS011;2902;42.130;24.732;2023-05-07T02:21:30;6.47;;;5.90;;
5754;SDS011;2902;42.130;24.732;2023-05-07T02:23:57;7.90;;;5.83;;
5754;SDS011;2902;42.130;24.732;2023-05-07T02:26:23;8.47;;;6.77;;
5754;SDS011;2902;42.130;24.732;2023-05-07T02:28:50;6.57;;;6.07;;
5754;SDS011;2902;42.130;24.732;2023-05-07T02:31:20;7.80;;;6.17;;
5754;SDS011;2902;42.130;24.732;2023-05-07T02:33:46;6.40;;;6.00;;
5754;SDS011;2902;42.130;24.732;2023-05-07T02:36:13;6.57;;;6.07;;
5754;SDS011;2902;42.130;24.732;2023-05-07T02:38:40;6.80;;;6.30;;
5754;SDS011;2902;42.130;24.732;2023-05-07T02:41:07;6.43;;;6.03;;
5754;SDS011;2902;42.130;24.732;2023-05-07T02:43:33;10.13;;;6.60;;
5754;SDS011;2902;42.130;24.732;2023-05-07T02:46:00;6.93;;;6.43;;
5754;SDS011;2902;42.130;24.732;2023-05-07T02:48:29;7.20;;;6.73;;
5754;SDS011;2902;42.130;24.732;2023-05-07T02:50:56;11.63;;;7.10;;
5754;SDS011;2902;42.130;24.732;2023-05-07T02:53:23;9.77;;;7.17;;
5754;SDS011;2902;42.130;24.732;2023-05-07T02:55:51;7.80;;;7.00;;
5754;SDS011;2902;42.130;24.732;2023-05-07T02:58:19;7.37;;;6.90;;
5754;SDS011;2902;42.130;24.732;2023-05-07T03:00:46;7.10;;;6.37;;
5754;SDS011;2902;42.130;24.732;2023-05-07T03:03:12;7.03;;;6.40;;
5754;SDS011;2902;42.130;24.732;2023-05-07T03:05:41;7.87;;;7.23;;
5754;SDS011;2902;42.130;24.732;2023-05-07T03:08:08;7.47;;;6.87;;
5754;SDS011;2902;42.130;24.732;2023-05-07T03:10:35;7.37;;;6.70;;
5754;SDS011;2902;42.130;24.732;2023-05-07T03:13:02;7.70;;;7.20;;
5754;SDS011;2902;42.130;24.732;2023-05-07T03:15:29;8.67;;;7.80;;
5754;SDS011;2902;42.130;24.732;2023-05-07T03:17:56;8.30;;;7.70;;
5754;SDS011;2902;42.130;24.732;2023-05-07T03:20:22;8.63;;;7.80;;
5754;SDS011;2902;42.130;24.732;2023-05-07T03:22:50;9.07;;;8.17;;
5754;SDS011;2902;42.130;24.732;2023-05-07T03:25:17;9.23;;;8.57;;
5754;SDS011;2902;42.130;24.732;2023-05-07T03:27:44;9.77;;;8.97;;
5754;SDS011;2902;42.130;24.732;2023-05-07T03:30:11;9.13;;;8.23;;
5754;SDS011;2902;42.130;24.732;2023-05-07T03:32:38;9.63;;;8.83;;
5754;SDS011;2902;42.130;24.732;2023-05-07T03:35:05;10.07;;;9.27;;
5754;SDS011;2902;42.130;24.732;2023-05-07T03:37:32;10.07;;;9.17;;
5754;SDS011;2902;42.130;24.732;2023-05-07T03:40:00;11.97;;;9.37;;
5754;SDS011;2902;42.130;24.732;2023-05-07T03:42:28;9.83;;;8.93;;
5754;SDS011;2902;42.130;24.732;2023-05-07T03:44:55;10.10;;;9.20;;
5754;SDS011;2902;42.130;24.732;2023-05-07T03:47:21;10.90;;;10.13;;
5754;SDS011;2902;42.130;24.732;2023-05-07T03:49:48;10.37;;;9.67;;
5754;SDS011;2902;42.130;24.732;2023-05-07T03:52:15;10.47;;;9.47;;
5754;SDS011;2902;42.130;24.732;2023-05-07T03:54:47;11.30;;;10.17;;
5754;SDS011;2902;42.130;24.732;2023-05-07T03:57:16;11.83;;;10.87;;
5754;SDS011;2902;42.130;24.732;2023-05-07T03:59:42;10.43;;;9.43;;
5754;SDS011;2902;42.130;24.732;2023-05-07T04:02:09;10.80;;;8.73;;
5754;SDS011;2902;42.130;24.732;2023-05-07T04:04:36;8.17;;;7.47;;
5754;SDS011;2902;42.130;24.732;2023-05-07T04:07:02;8.20;;;6.63;;
5754;SDS011;2902;42.130;24.732;2023-05-07T04:09:29;7.70;;;7.17;;
5754;SDS011;2902;42.130;24.732;2023-05-07T04:11:56;7.30;;;6.70;;
5754;SDS011;2902;42.130;24.732;2023-05-07T04:14:24;9.87;;;6.73;;
5754;SDS011;2902;42.130;24.732;2023-05-07T04:16:50;9.27;;;6.47;;
5754;SDS011;2902;42.130;24.732;2023-05-07T04:19:17;6.80;;;6.20;;
5754;SDS011;2902;42.130;24.732;2023-05-07T04:21:44;7.63;;;6.23;;
5754;SDS011;2902;42.130;24.732;2023-05-07T04:24:10;9.30;;;6.67;;
5754;SDS011;2902;42.130;24.732;2023-05-07T04:26:37;6.57;;;6.17;;
5754;SDS011;2902;42.130;24.732;2023-05-07T04:29:04;6.40;;;5.80;;
5754;SDS011;2902;42.130;24.732;2023-05-07T04:31:32;7.57;;;6.33;;
5754;SDS011;2902;42.130;24.732;2023-05-07T04:33:58;6.40;;;5.90;;
5754;SDS011;2902;42.130;24.732;2023-05-07T04:36:26;7.13;;;6.53;;
5754;SDS011;2902;42.130;24.732;2023-05-07T04:38:54;6.53;;;5.93;;
5754;SDS011;2902;42.130;24.732;2023-05-07T04:41:21;6.13;;;5.73;;
5754;SDS011;2902;42.130;24.732;2023-05-07T04:43:47;6.90;;;5.97;;
5754;SDS011;2902;42.130;24.732;2023-05-07T04:46:14;6.57;;;5.97;;
5754;SDS011;2902;42.130;24.732;2023-05-07T04:48:42;6.03;;;5.57;;
5754;SDS011;2902;42.130;24.732;2023-05-07T04:51:09;5.90;;;5.40;;
5754;SDS011;2902;42.130;24.732;2023-05-07T04:53:36;6.23;;;5.70;;
5754;SDS011;2902;42.130;24.732;2023-05-07T04:56:03;5.90;;;5.40;;
5754;SDS011;2902;42.130;24.732;2023-05-07T04:58:30;5.63;;;5.13;;
5754;SDS011;2902;42.130;24.732;2023-05-07T05:00:57;6.17;;;5.70;;
5754;SDS011;2902;42.130;24.732;2023-05-07T05:03:24;5.83;;;5.27;;
5754;SDS011;2902;42.130;24.732;2023-05-07T05:05:52;6.10;;;5.50;;
5754;SDS011;2902;42.130;24.732;2023-05-07T05:08:19;5.37;;;5.07;;
5754;SDS011;2902;42.130;24.732;2023-05-07T05:10:45;5.53;;;4.90;;
5754;SDS011;2902;42.130;24.732;2023-05-07T05:13:13;4.93;;;4.63;;
5754;SDS011;2902;42.130;24.732;2023-05-07T05:15:40;5.50;;;5.00;;
5754;SDS011;2902;42.130;24.732;2023-05-07T05:18:07;5.30;;;4.93;;
5754;SDS011;2902;42.130;24.732;2023-05-07T05:20:33;6.93;;;5.23;;
5754;SDS011;2902;42.130;24.732;2023-05-07T05:23:01;5.30;;;4.80;;
5754;SDS011;2902;42.130;24.732;2023-05-07T05:25:28;5.90;;;5.00;;
5754;SDS011;2902;42.130;24.732;2023-05-07T05:27:55;5.93;;;5.37;;
5754;SDS011;2902;42.130;24.732;2023-05-07T05:30:22;4.67;;;4.37;;
5754;SDS011;2902;42.130;24.732;2023-05-07T05:32:49;5.77;;;5.37;;
5754;SDS011;2902;42.130;24.732;2023-05-07T05:35:15;5.90;;;5.17;;
5754;SDS011;2902;42.130;24.732;2023-05-07T05:37:42;5.43;;;4.90;;
5754;SDS011;2902;42.130;24.732;2023-05-07T05:40:11;4.83;;;4.47;;
5754;SDS011;2902;42.130;24.732;2023-05-07T05:42:38;5.13;;;4.73;;
5754;SDS011;2902;42.130;24.732;2023-05-07T05:45:05;8.53;;;4.53;;
5754;SDS011;2902;42.130;24.732;2023-05-07T05:47:33;5.07;;;4.63;;
5754;SDS011;2902;42.130;24.732;2023-05-07T05:49:59;4.97;;;4.60;;
5754;SDS011;2902;42.130;24.732;2023-05-07T05:52:26;6.53;;;4.50;;
5754;SDS011;2902;42.130;24.732;2023-05-07T05:54:53;4.50;;;4.20;;
5754;SDS011;2902;42.130;24.732;2023-05-07T05:57:21;5.83;;;4.10;;
5754;SDS011;2902;42.130;24.732;2023-05-07T05:59:48;6.10;;;4.53;;
5754;SDS011;2902;42.130;24.732;2023-05-07T06:02:14;7.87;;;4.67;;
5754;SDS011;2902;42.130;24.732;2023-05-07T06:04:41;5.73;;;4.20;;
5754;SDS011;2902;42.130;24.732;2023-05-07T06:07:08;5.00;;;4.50;;
5754;SDS011;2902;42.130;24.732;2023-05-07T06:09:35;5.20;;;4.70;;
5754;SDS011;2902;42.130;24.732;2023-05-07T06:12:01;4.87;;;4.20;;
5754;SDS011;2902;42.130;24.732;2023-05-07T06:14:30;4.27;;;3.97;;
5754;SDS011;2902;42.130;24.732;2023-05-07T06:16:56;5.20;;;4.33;;
5754;SDS011;2902;42.130;24.732;2023-05-07T06:19:23;5.57;;;3.73;;
5754;SDS011;2902;42.130;24.732;2023-05-07T06:21:51;9.83;;;4.70;;
5754;SDS011;2902;42.130;24.732;2023-05-07T06:24:18;5.10;;;4.50;;
5754;SDS011;2902;42.130;24.732;2023-05-07T06:26:45;4.73;;;4.43;;
5754;SDS011;2902;42.130;24.732;2023-05-07T06:29:11;6.80;;;4.70;;
5754;SDS011;2902;42.130;24.732;2023-05-07T06:31:39;6.73;;;4.10;;
5754;SDS011;2902;42.130;24.732;2023-05-07T06:34:07;4.97;;;4.67;;
5754;SDS011;2902;42.130;24.732;2023-05-07T06:36:33;6.73;;;4.40;;
5754;SDS011;2902;42.130;24.732;2023-05-07T06:39:00;5.83;;;4.90;;
5754;SDS011;2902;42.130;24.732;2023-05-07T06:41:27;8.63;;;4.63;;
5754;SDS011;2902;42.130;24.732;2023-05-07T06:43:54;4.87;;;4.17;;
5754;SDS011;2902;42.130;24.732;2023-05-07T06:46:20;8.20;;;4.90;;
5754;SDS011;2902;42.130;24.732;2023-05-07T06:48:48;8.80;;;4.90;;
5754;SDS011;2902;42.130;24.732;2023-05-07T06:51:15;5.23;;;4.50;;
5754;SDS011;2902;42.130;24.732;2023-05-07T06:53:42;5.37;;;4.90;;
5754;SDS011;2902;42.130;24.732;2023-05-07T06:56:08;9.23;;;4.53;;
5754;SDS011;2902;42.130;24.732;2023-05-07T06:58:35;6.20;;;4.17;;
5754;SDS011;2902;42.130;24.732;2023-05-07T07:01:03;5.37;;;4.70;;
5754;SDS011;2902;42.130;24.732;2023-05-07T07:03:30;7.13;;;4.73;;
5754;SDS011;2902;42.130;24.732;2023-05-07T07:05:58;6.20;;;4.37;;
5754;SDS011;2902;42.130;24.732;2023-05-07T07:08:26;5.30;;;4.67;;
5754;SDS011;2902;42.130;24.732;2023-05-07T07:10:53;9.77;;;5.20;;
5754;SDS011;2902;42.130;24.732;2023-05-07T07:13:20;5.13;;;4.73;;
5754;SDS011;2902;42.130;24.732;2023-05-07T07:15:46;4.87;;;4.47;;
5754;SDS011;2902;42.130;24.732;2023-05-07T07:18:13;5.10;;;4.80;;
5754;SDS011;2902;42.130;24.732;2023-05-07T07:20:40;9.33;;;4.43;;
5754;SDS011;2902;42.130;24.732;2023-05-07T07:23:08;6.53;;;4.10;;
5754;SDS011;2902;42.130;24.732;2023-05-07T07:25:35;4.50;;;4.20;;
5754;SDS011;2902;42.130;24.732;2023-05-07T07:28:02;6.27;;;5.27;;
5754;SDS011;2902;42.130;24.732;2023-05-07T07:30:28;7.60;;;5.03;;
5754;SDS011;2902;42.130;24.732;2023-05-07T07:32:55;5.17;;;4.83;;
5754;SDS011;2902;42.130;24.732;2023-05-07T07:35:27;5.53;;;5.23;;
5754;SDS011;2902;42.130;24.732;2023-05-07T07:37:54;5.17;;;4.87;;
5754;SDS011;2902;42.130;24.732;2023-05-07T07:40:22;4.90;;;4.60;;
5754;SDS011;2902;42.130;24.732;2023-05-07T07:42:50;4.70;;;4.50;;
5754;SDS011;2902;42.130;24.732;2023-05-07T07:45:16;5.73;;;4.70;;
5754;SDS011;2902;42.130;24.732;2023-05-07T07:47:43;5.03;;;4.53;;
5754;SDS011;2902;42.130;24.732;2023-05-07T07:50:10;4.77;;;4.37;;
5754;SDS011;2902;42.130;24.732;2023-05-07T07:52:37;5.07;;;4.70;;
5754;SDS011;2902;42.130;24.732;2023-05-07T07:55:04;4.80;;;4.40;;
5754;SDS011;2902;42.130;24.732;2023-05-07T07:57:33;5.00;;;4.50;;
5754;SDS011;2902;42.130;24.732;2023-05-07T08:00:00;8.73;;;5.30;;
5754;SDS011;2902;42.130;24.732;2023-05-07T08:02:27;4.80;;;4.40;;
5754;SDS011;2902;42.130;24.732;2023-05-07T08:04:54;8.37;;;4.80;;
5754;SDS011;2902;42.130;24.732;2023-05-07T08:07:20;6.20;;;5.53;;
5754;SDS011;2902;42.130;24.732;2023-05-07T08:09:47;5.50;;;4.57;;
5754;SDS011;2902;42.130;24.732;2023-05-07T08:12:14;5.67;;;4.40;;
5754;SDS011;2902;42.130;24.732;2023-05-07T08:14:43;4.20;;;3.73;;
5754;SDS011;2902;42.130;24.732;2023-05-07T08:17:09;5.27;;;4.77;;
5754;SDS011;2902;42.130;24.732;2023-05-07T08:19:36;4.23;;;3.83;;
5754;SDS011;2902;42.130;24.732;2023-05-07T08:22:03;6.33;;;5.07;;
5754;SDS011;2902;42.130;24.732;2023-05-07T08:24:30;9.37;;;5.13;;
5754;SDS011;2902;42.130;24.732;2023-05-07T08:26:57;11.30;;;4.00;;
5754;SDS011;2902;42.130;24.732;2023-05-07T08:29:24;4.20;;;3.37;;
5754;SDS011;2902;42.130;24.732;2023-05-07T08:31:52;4.40;;;4.10;;
5754;SDS011;2902;42.130;24.732;2023-05-07T08:34:19;4.20;;;3.73;;
5754;SDS011;2902;42.130;24.732;2023-05-07T08:36:46;3.77;;;3.43;;
5754;SDS011;2902;42.130;24.732;2023-05-07T08:39:13;3.90;;;3.47;;
5754;SDS011;2902;42.130;24.732;2023-05-07T08:41:43;5.10;;;4.60;;
5754;SDS011;2902;42.130;24.732;2023-05-07T08:44:12;4.90;;;3.50;;
5754;SDS011;2902;42.130;24.732;2023-05-07T08:46:40;4.57;;;4.20;;
5754;SDS011;2902;42.130;24.732;2023-05-07T08:49:09;6.47;;;3.73;;
5754;SDS011;2902;42.130;24.732;2023-05-07T08:51:36;5.00;;;4.40;;
5754;SDS011;2902;42.130;24.732;2023-05-07T08:54:04;4.53;;;4.20;;
5754;SDS011;2902;42.130;24.732;2023-05-07T08:56:32;3.97;;;3.73;;
5754;SDS011;2902;42.130;24.732;2023-05-07T08:58:59;3.73;;;3.40;;
5754;SDS011;2902;42.130;24.732;2023-05-07T09:01:25;4.20;;;3.43;;
5754;SDS011;2902;42.130;24.732;2023-05-07T09:03:52;3.30;;;3.10;;
5754;SDS011;2902;42.130;24.732;2023-05-07T09:06:21;3.50;;;3.30;;
5754;SDS011;2902;42.130;24.732;2023-05-07T09:08:51;3.20;;;2.90;;
5754;SDS011;2902;42.130;24.732;2023-05-07T09:11:22;3.60;;;3.30;;
5754;SDS011;2902;42.130;24.732;2023-05-07T09:13:49;3.50;;;3.17;;
5754;SDS011;2902;42.130;24.732;2023-05-07T09:16:20;3.63;;;3.33;;
5754;SDS011;2902;42.130;24.732;2023-05-07T09:18:48;3.40;;;3.20;;
5754;SDS011;2902;42.130;24.732;2023-05-07T09:21:17;2.77;;;2.57;;
5754;SDS011;2902;42.130;24.732;2023-05-07T09:23:46;4.17;;;3.07;;
5754;SDS011;2902;42.130;24.732;2023-05-07T09:26:14;3.33;;;2.60;;
5754;SDS011;2902;42.130;24.732;2023-05-07T09:28:41;3.73;;;2.80;;
5754;SDS011;2902;42.130;24.732;2023-05-07T09:31:08;3.93;;;2.50;;
5754;SDS011;2902;42.130;24.732;2023-05-07T09:33:35;2.73;;;2.53;;
5754;SDS011;2902;42.130;24.732;2023-05-07T09:36:02;2.90;;;2.70;;
5754;SDS011;2902;42.130;24.732;2023-05-07T09:38:30;2.53;;;2.27;;
5754;SDS011;2902;42.130;24.732;2023-05-07T09:41:05;3.77;;;2.73;;
5754;SDS011;2902;42.130;24.732;2023-05-07T09:43:33;4.33;;;2.57;;
5754;SDS011;2902;42.130;24.732;2023-05-07T09:46:06;4.63;;;2.50;;
5754;SDS011;2902;42.130;24.732;2023-05-07T09:48:35;3.57;;;2.80;;
5754;SDS011;2902;42.130;24.732;2023-05-07T09:51:05;18.13;;;2.97;;
5754;SDS011;2902;42.130;24.732;2023-05-07T09:53:40;3.23;;;3.03;;
5754;SDS011;2902;42.130;24.732;2023-05-07T09:56:09;3.60;;;2.47;;
5754;SDS011;2902;42.130;24.732;2023-05-07T09:58:37;3.27;;;2.30;;
5754;SDS011;2902;42.130;24.732;2023-05-07T10:01:07;3.53;;;2.73;;
5754;SDS011;2902;42.130;24.732;2023-05-07T10:03:36;3.73;;;3.10;;
5754;SDS011;2902;42.130;24.732;2023-05-07T10:06:04;2.70;;;2.60;;
5754;SDS011;2902;42.130;24.732;2023-05-07T10:08:31;3.87;;;2.63;;
5754;SDS011;2902;42.130;24.732;2023-05-07T10:10:59;3.03;;;2.73;;
5754;SDS011;2902;42.130;24.732;2023-05-07T10:13:27;3.30;;;3.00;;
5754;SDS011;2902;42.130;24.732;2023-05-07T10:15:55;2.83;;;2.60;;
5754;SDS011;2902;42.130;24.732;2023-05-07T10:18:22;2.97;;;2.77;;
5754;SDS011;2902;42.130;24.732;2023-05-07T10:20:54;4.33;;;2.90;;
5754;SDS011;2902;42.130;24.732;2023-05-07T10:23:28;4.40;;;3.03;;
5754;SDS011;2902;42.130;24.732;2023-05-07T10:25:57;3.50;;;3.20;;
5754;SDS011;2902;42.130;24.732;2023-05-07T10:28:25;4.47;;;3.50;;
5754;SDS011;2902;42.130;24.732;2023-05-07T10:30:58;4.93;;;2.80;;
5754;SDS011;2902;42.130;24.732;2023-05-07T10:33:34;3.00;;;2.80;;
5754;SDS011;2902;42.130;24.732;2023-05-07T10:36:02;3.80;;;2.80;;
5754;SDS011;2902;42.130;24.732;2023-05-07T10:38:30;3.73;;;3.43;;
5754;SDS011;2902;42.130;24.732;2023-05-07T10:40:57;5.40;;;3.70;;
5754;SDS011;2902;42.130;24.732;2023-05-07T10:43:24;3.00;;;2.70;;
5754;SDS011;2902;42.130;24.732;2023-05-07T10:46:11;4.57;;;2.60;;
5754;SDS011;2902;42.130;24.732;2023-05-07T10:51:37;4.33;;;4.13;;
5754;SDS011;2902;42.130;24.732;2023-05-07T10:54:20;4.03;;;3.73;;
5754;SDS011;2902;42.130;24.732;2023-05-07T10:56:49;4.57;;;2.93;;
5754;SDS011;2902;42.130;24.732;2023-05-07T10:59:33;2.93;;;2.73;;
5754;SDS011;2902;42.130;24.732;2023-05-07T11:02:08;7.73;;;7.03;;
5754;SDS011;2902;42.130;24.732;2023-05-07T11:04:36;2.87;;;2.67;;
5754;SDS011;2902;42.130;24.732;2023-05-07T11:09:56;2.80;;;2.60;;
5754;SDS011;2902;42.130;24.732;2023-05-07T11:18:16;2.97;;;2.60;;
5754;SDS011;2902;42.130;24.732;2023-05-07T11:20:47;3.17;;;2.87;;
5754;SDS011;2902;42.130;24.732;2023-05-07T11:26:42;2.70;;;2.60;;
5754;SDS011;2902;42.130;24.732;2023-05-07T11:29:13;3.17;;;2.90;;
5754;SDS011;2902;42.130;24.732;2023-05-07T11:31:41;3.10;;;2.40;;
5754;SDS011;2902;42.130;24.732;2023-05-07T11:34:10;4.40;;;2.53;;
5754;SDS011;2902;42.130;24.732;2023-05-07T11:36:41;2.83;;;2.63;;
5754;SDS011;2902;42.130;24.732;2023-05-07T11:39:28;2.17;;;2.07;;
5754;SDS011;2902;42.130;24.732;2023-05-07T11:41:57;2.87;;;2.33;;
5754;SDS011;2902;42.130;24.732;2023-05-07T11:44:24;3.63;;;2.50;;
5754;SDS011;2902;42.130;24.732;2023-05-07T11:46:51;4.43;;;4.00;;
5754;SDS011;2902;42.130;24.732;2023-05-07T11:49:19;3.27;;;2.90;;
5754;SDS011;2902;42.130;24.732;2023-05-07T11:51:46;2.60;;;2.50;;
5754;SDS011;2902;42.130;24.732;2023-05-07T11:54:15;2.50;;;2.33;;
5754;SDS011;2902;42.130;24.732;2023-05-07T11:56:43;2.83;;;2.60;;
5754;SDS011;2902;42.130;24.732;2023-05-07T11:59:12;3.97;;;3.67;;
5754;SDS011;2902;42.130;24.732;2023-05-07T12:01:44;3.13;;;2.93;;
5754;SDS011;2902;42.130;24.732;2023-05-07T12:04:12;2.90;;;2.80;;
5754;SDS011;2902;42.130;24.732;2023-05-07T12:06:40;3.17;;;2.80;;
5754;SDS011;2902;42.130;24.732;2023-05-07T12:09:06;3.00;;;2.90;;
5754;SDS011;2902;42.130;24.732;2023-05-07T12:11:36;2.97;;;2.77;;
5754;SDS011;2902;42.130;24.732;2023-05-07T12:14:04;2.40;;;2.30;;
5754;SDS011;2902;42.130;24.732;2023-05-07T12:16:31;3.17;;;2.97;;
5754;SDS011;2902;42.130;24.732;2023-05-07T12:18:58;2.87;;;2.73;;
5754;SDS011;2902;42.130;24.732;2023-05-07T12:21:26;2.80;;;2.70;;
5754;SDS011;2902;42.130;24.732;2023-05-07T12:23:54;2.33;;;2.23;;
5754;SDS011;2902;42.130;24.732;2023-05-07T12:26:21;4.20;;;3.03;;
5754;SDS011;2902;42.130;24.732;2023-05-07T12:28:47;2.90;;;2.50;;
5754;SDS011;2902;42.130;24.732;2023-05-07T12:31:14;2.70;;;2.50;;
5754;SDS011;2902;42.130;24.732;2023-05-07T12:33:41;3.07;;;2.87;;
5754;SDS011;2902;42.130;24.732;2023-05-07T12:36:09;2.67;;;2.47;;
5754;SDS011;2902;42.130;24.732;2023-05-07T12:38:39;3.10;;;2.67;;
5754;SDS011;2902;42.130;24.732;2023-05-07T12:41:08;2.73;;;2.53;;
5754;SDS011;2902;42.130;24.732;2023-05-07T12:43:37;2.40;;;2.30;;
5754;SDS011;2902;42.130;24.732;2023-05-07T12:46:05;4.83;;;2.70;;
5754;SDS011;2902;42.130;24.732;2023-05-07T12:48:32;3.23;;;3.03;;
5754;SDS011;2902;42.130;24.732;2023-05-07T12:51:00;3.23;;;2.93;;
5754;SDS011;2902;42.130;24.732;2023-05-07T12:53:28;2.50;;;2.30;;
5754;SDS011;2902;42.130;24.732;2023-05-07T12:55:57;2.73;;;2.60;;
5754;SDS011;2902;42.130;24.732;2023-05-07T12:58:26;3.57;;;2.70;;
5754;SDS011;2902;42.130;24.732;2023-05-07T13:00:54;3.20;;;2.80;;
5754;SDS011;2902;42.130;24.732;2023-05-07T13:03:26;8.00;;;2.87;;
5754;SDS011;2902;42.130;24.732;2023-05-07T13:05:54;3.27;;;2.50;;
5754;SDS011;2902;42.130;24.732;2023-05-07T13:08:28;2.50;;;2.40;;
5754;SDS011;2902;42.130;24.732;2023-05-07T13:10:57;2.57;;;2.37;;
5754;SDS011;2902;42.130;24.732;2023-05-07T13:13:26;3.60;;;2.83;;
5754;SDS011;2902;42.130;24.732;2023-05-07T13:15:52;2.87;;;2.67;;
5754;SDS011;2902;42.130;24.732;2023-05-07T13:18:19;3.17;;;2.20;;
5754;SDS011;2902;42.130;24.732;2023-05-07T13:20:46;2.83;;;2.67;;
5754;SDS011;2902;42.130;24.732;2023-05-07T13:23:12;2.97;;;2.37;;
5754;SDS011;2902;42.130;24.732;2023-05-07T13:25:39;2.43;;;2.33;;
5754;SDS011;2902;42.130;24.732;2023-05-07T13:28:06;3.37;;;2.50;;
5754;SDS011;2902;42.130;24.732;2023-05-07T13:30:34;2.53;;;2.43;;
5754;SDS011;2902;42.130;24.732;2023-05-07T13:33:00;3.00;;;2.77;;
5754;SDS011;2902;42.130;24.732;2023-05-07T13:35:27;2.60;;;2.50;;
5754;SDS011;2902;42.130;24.732;2023-05-07T13:37:54;2.67;;;2.47;;
5754;SDS011;2902;42.130;24.732;2023-05-07T13:40:21;2.40;;;2.20;;
5754;SDS011;2902;42.130;24.732;2023-05-07T13:42:49;2.73;;;2.57;;
5754;SDS011;2902;42.130;24.732;2023-05-07T13:45:16;2.57;;;2.47;;
5754;SDS011;2902;42.130;24.732;2023-05-07T13:47:44;2.40;;;2.30;;
5754;SDS011;2902;42.130;24.732;2023-05-07T13:50:11;2.40;;;2.20;;
5754;SDS011;2902;42.130;24.732;2023-05-07T13:52:40;2.47;;;2.37;;
5754;SDS011;2902;42.130;24.732;2023-05-07T13:55:08;3.00;;;2.80;;
5754;SDS011;2902;42.130;24.732;2023-05-07T13:57:36;2.67;;;2.47;;
5754;SDS011;2902;42.130;24.732;2023-05-07T14:00:03;4.10;;;2.50;;
5754;SDS011;2902;42.130;24.732;2023-05-07T14:02:31;6.17;;;2.73;;
5754;SDS011;2902;42.130;24.732;2023-05-07T14:04:59;2.20;;;2.10;;
5754;SDS011;2902;42.130;24.732;2023-05-07T14:07:26;2.43;;;2.30;;
5754;SDS011;2902;42.130;24.732;2023-05-07T14:09:53;4.03;;;2.30;;
5754;SDS011;2902;42.130;24.732;2023-05-07T14:12:20;2.70;;;2.50;;
5754;SDS011;2902;42.130;24.732;2023-05-07T14:14:47;2.50;;;1.80;;
5754;SDS011;2902;42.130;24.732;2023-05-07T14:17:14;3.17;;;2.70;;
5754;SDS011;2902;42.130;24.732;2023-05-07T14:19:41;2.60;;;2.40;;
5754;SDS011;2902;42.130;24.732;2023-05-07T14:22:09;2.90;;;2.57;;
5754;SDS011;2902;42.130;24.732;2023-05-07T14:24:36;3.37;;;2.30;;
5754;SDS011;2902;42.130;24.732;2023-05-07T14:27:03;2.80;;;2.00;;
5754;SDS011;2902;42.130;24.732;2023-05-07T14:29:30;3.60;;;2.03;;
5754;SDS011;2902;42.130;24.732;2023-05-07T14:31:57;2.23;;;2.03;;
5754;SDS011;2902;42.130;24.732;2023-05-07T14:34:24;2.23;;;2.13;;
5754;SDS011;2902;42.130;24.732;2023-05-07T14:36:50;2.27;;;2.00;;
5754;SDS011;2902;42.130;24.732;2023-05-07T14:39:19;2.00;;;1.90;;
5754;SDS011;2902;42.130;24.732;2023-05-07T14:41:45;2.30;;;2.10;;
5754;SDS011;2902;42.130;24.732;2023-05-07T14:44:12;2.17;;;2.07;;
5754;SDS011;2902;42.130;24.732;2023-05-07T14:46:39;3.13;;;2.20;;
5754;SDS011;2902;42.130;24.732;2023-05-07T14:49:05;2.40;;;2.30;;
5754;SDS011;2902;42.130;24.732;2023-05-07T14:51:38;3.63;;;2.40;;
5754;SDS011;2902;42.130;24.732;2023-05-07T14:54:05;5.07;;;2.30;;
5754;SDS011;2902;42.130;24.732;2023-05-07T14:56:33;2.30;;;2.20;;
5754;SDS011;2902;42.130;24.732;2023-05-07T14:59:01;2.40;;;2.20;;
5754;SDS011;2902;42.130;24.732;2023-05-07T15:01:28;4.47;;;2.10;;
5754;SDS011;2902;42.130;24.732;2023-05-07T15:03:55;1.87;;;1.77;;
5754;SDS011;2902;42.130;24.732;2023-05-07T15:06:22;8.13;;;7.63;;
5754;SDS011;2902;42.130;24.732;2023-05-07T15:08:48;3.93;;;3.60;;
5754;SDS011;2902;42.130;24.732;2023-05-07T15:11:15;2.83;;;2.53;;
5754;SDS011;2902;42.130;24.732;2023-05-07T15:13:43;2.90;;;2.60;;
5754;SDS011;2902;42.130;24.732;2023-05-07T15:16:10;2.30;;;2.20;;
5754;SDS011;2902;42.130;24.732;2023-05-07T15:18:37;4.80;;;1.90;;